Terminal Aerodrome Forecast
Issued by NWS

Home | Current Version | Previous Version | Text Only | Print | Product List | Glossary On
Versions: 1 2 3 4 5 6 7 8 9 10 11 12 13
159
FTUS42 KGSP 220520
TAFAND
TAF
KAND 220520Z 2206/2306 VRB03KT P6SM SCT250
     FM221100 05004KT P6SM SCT250
     FM221900 10007KT P6SM BKN045
     FM230200 08006KT P6SM VCSH BKN025
     FM230400 09006KT 4SM BR OVC015 PROB30 2304/2306 2SM -SHRA BR
      OVC008=

USA.gov is the U.S. government's official web portal to all federal, state and local government web resources and services.